createdAt,value
2022-07-30T00:00:11.266Z,101828.88
2022-07-30T00:03:16.278Z,101816.25
2022-07-30T00:06:21.745Z,101814.34
2022-07-30T00:09:27.027Z,101809.72
2022-07-30T00:12:33.636Z,101810.13
2022-07-30T00:15:39.091Z,101797.91
2022-07-30T00:18:44.305Z,101806.31
2022-07-30T00:21:49.860Z,101805.47
2022-07-30T00:24:55.997Z,101802.78
2022-07-30T00:28:02.918Z,101798.25
2022-07-30T00:31:08.119Z,101797.22
2022-07-30T00:34:13.616Z,101795.53
2022-07-30T00:37:19.248Z,101780.78
2022-07-30T00:40:24.673Z,101781.84
2022-07-30T00:43:31.587Z,101780.16
2022-07-30T00:46:36.975Z,101783.28
2022-07-30T00:49:44.363Z,101782.03
2022-07-30T00:52:49.765Z,101781.38
2022-07-30T00:55:54.773Z,101791.06
2022-07-30T00:59:01.627Z,101800.94
2022-07-30T01:02:07.316Z,101799.66
2022-07-30T01:05:13.210Z,101796.09
2022-07-30T01:08:18.787Z,101787.63
2022-07-30T01:11:29.612Z,101783.63
2022-07-30T01:14:37.295Z,101791.44
2022-07-30T01:17:42.497Z,101795.41
2022-07-30T01:20:58.323Z,101788.03
2022-07-30T01:24:17.377Z,101784.44
2022-07-30T01:27:26.204Z,101792.81
2022-07-30T01:30:35.511Z,101794.53
2022-07-30T01:33:45.975Z,101787.13
2022-07-30T01:36:52.012Z,101787.97
2022-07-30T01:39:58.260Z,101791.75
2022-07-30T01:43:08.089Z,101787.72
2022-07-30T01:46:15.927Z,101787.97
2022-07-30T01:49:24.048Z,101789.63
2022-07-30T01:52:31.615Z,101782.34
2022-07-30T01:55:41.122Z,101787.91
2022-07-30T01:58:50.576Z,101781.78
2022-07-30T02:02:01.552Z,101785.91
2022-07-30T02:05:07.451Z,101788.22
2022-07-30T02:08:17.860Z,101784.47
2022-07-30T02:11:44.530Z,101789.94
2022-07-30T02:14:57.383Z,101792.03
2022-07-30T02:18:07.401Z,101795.38
2022-07-30T02:21:13.901Z,101796.84
2022-07-30T02:24:24.989Z,101788.34
2022-07-30T02:27:34.950Z,101783.69
2022-07-30T02:30:49.391Z,101781.97
2022-07-30T02:33:59.344Z,101790.41
2022-07-30T02:37:07.033Z,101797.91
2022-07-30T02:40:18.889Z,101797.28
2022-07-30T02:43:26.085Z,101799.75
2022-07-30T02:46:33.400Z,101792.84
2022-07-30T02:49:59.570Z,101797.91
2022-07-30T02:53:09.920Z,101789.66
2022-07-30T02:56:17.394Z,101793.66
2022-07-30T02:59:24.893Z,101789.47
2022-07-30T03:02:32.838Z,101803.88
2022-07-30T03:05:39.571Z,101805.22
2022-07-30T03:08:46.114Z,101805.56
2022-07-30T03:11:53.473Z,101800.47
2022-07-30T03:14:59.402Z,101798.03
2022-07-30T03:18:07.842Z,101798.03
2022-07-30T03:21:15.936Z,101805.41
2022-07-30T03:24:25.377Z,101801.56
2022-07-30T03:27:32.338Z,101792.88
2022-07-30T03:30:38.386Z,101796.97
2022-07-30T03:33:46.156Z,101800.19
2022-07-30T03:36:55.487Z,101797.16
2022-07-30T03:40:01.834Z,101796.94
2022-07-30T03:43:18.552Z,101800.19
2022-07-30T03:46:37.439Z,101804.56
2022-07-30T03:49:44.522Z,101796.31
2022-07-30T03:52:50.592Z,101807.81
2022-07-30T03:55:56.695Z,101811.91
2022-07-30T03:59:21.091Z,101813.22
2022-07-30T04:02:26.913Z,101812.63
2022-07-30T04:05:56.729Z,101816.38
2022-07-30T04:09:02.449Z,101826.78
2022-07-30T04:12:07.966Z,101821.94
2022-07-30T04:16:05.704Z,101823.47
2022-07-30T04:18:45.271Z,101826.28
2022-07-30T04:21:55.029Z,101825.03
2022-07-30T04:25:02.550Z,101831.66
2022-07-30T04:28:08.281Z,101830.03
2022-07-30T04:31:13.671Z,101831.28
2022-07-30T04:34:19.603Z,101834.00
2022-07-30T04:37:27.992Z,101832.00
2022-07-30T04:40:33.549Z,101845.28
2022-07-30T04:43:39.189Z,101845.81
2022-07-30T04:46:44.816Z,101840.03
2022-07-30T04:49:51.819Z,101839.41
2022-07-30T04:52:58.547Z,101844.47
2022-07-30T04:56:12.113Z,101841.94
2022-07-30T04:59:19.219Z,101845.63
2022-07-30T05:02:28.374Z,101844.53
2022-07-30T05:05:34.799Z,101847.91
2022-07-30T05:08:42.713Z,101850.13
2022-07-30T05:11:53.253Z,101859.69
2022-07-30T05:14:58.528Z,101845.56
2022-07-30T05:18:03.805Z,101848.78
2022-07-30T05:21:16.894Z,101853.69
2022-07-30T05:24:26.886Z,101854.19
2022-07-30T05:27:35.068Z,101855.69
2022-07-30T05:30:46.039Z,101852.16
2022-07-30T05:33:55.394Z,101859.63
2022-07-30T05:37:04.817Z,101854.78
2022-07-30T05:40:13.355Z,101853.50
2022-07-30T05:43:55.833Z,101853.50
2022-07-30T05:47:02.289Z,101860.88
2022-07-30T05:50:08.359Z,101860.41
2022-07-30T05:53:14.470Z,101862.47
2022-07-30T05:56:40.931Z,101871.53
2022-07-30T05:59:52.302Z,101870.97
2022-07-30T06:03:21.984Z,101871.13
2022-07-30T06:07:05.888Z,101863.78
2022-07-30T06:10:12.420Z,101872.97
2022-07-30T06:13:19.006Z,101870.34
2022-07-30T06:16:24.617Z,101875.78
2022-07-30T06:19:30.042Z,101867.81
2022-07-30T06:22:35.345Z,101871.34
2022-07-30T06:25:46.127Z,101875.22
2022-07-30T06:28:52.525Z,101874.59
2022-07-30T06:32:05.036Z,101872.16
2022-07-30T06:35:10.611Z,101871.81
2022-07-30T06:38:16.050Z,101875.66
2022-07-30T06:41:32.405Z,101877.09
2022-07-30T06:44:39.674Z,101874.44
2022-07-30T06:47:59.658Z,101874.19
2022-07-30T06:51:06.676Z,101877.69
2022-07-30T06:54:13.113Z,101873.22
2022-07-30T06:57:50.912Z,101870.13
2022-07-30T07:01:26.615Z,101868.38
2022-07-30T07:04:33.258Z,101869.66
2022-07-30T07:07:44.431Z,101870.34
2022-07-30T07:10:59.220Z,101873.44
2022-07-30T07:14:08.854Z,101874.84
2022-07-30T07:17:16.412Z,101877.25
2022-07-30T07:20:46.591Z,101870.16
2022-07-30T07:23:52.037Z,101873.53
2022-07-30T07:27:16.669Z,101880.75
2022-07-30T07:30:25.202Z,101882.81
2022-07-30T07:33:32.206Z,101870.91
2022-07-30T07:36:37.908Z,101881.44
2022-07-30T07:39:43.323Z,101873.69
2022-07-30T07:42:48.921Z,101890.44
2022-07-30T07:45:57.108Z,101887.31
2022-07-30T07:49:06.377Z,101885.44
2022-07-30T07:52:23.618Z,101887.69
2022-07-30T07:55:31.695Z,101893.69
2022-07-30T07:58:38.802Z,101880.63
2022-07-30T08:01:47.567Z,101890.72
2022-07-30T08:05:06.877Z,101882.91
2022-07-30T08:08:37.497Z,101878.69
2022-07-30T08:12:18.171Z,101884.94
2022-07-30T08:15:38.523Z,101875.59
2022-07-30T08:19:21.970Z,101884.44
2022-07-30T08:22:46.950Z,101880.16
2022-07-30T08:25:53.656Z,101883.59
2022-07-30T08:28:59.076Z,101881.47
2022-07-30T08:32:04.525Z,101878.47
2022-07-30T08:35:13.478Z,101871.69
2022-07-30T08:38:20.581Z,101877.72
2022-07-30T08:41:27.107Z,101874.34
2022-07-30T08:44:34.209Z,101878.38
2022-07-30T08:47:42.139Z,101873.38
2022-07-30T08:50:51.343Z,101876.03
2022-07-30T08:54:20.220Z,101881.47
2022-07-30T08:57:26.239Z,101874.31
2022-07-30T09:00:31.985Z,101871.00
2022-07-30T09:03:44.138Z,101881.94
2022-07-30T09:06:50.298Z,101881.84
2022-07-30T09:09:57.370Z,101890.47
2022-07-30T09:13:04.094Z,101902.06
2022-07-30T09:16:20.519Z,101902.56
2022-07-30T09:19:26.788Z,101899.22
2022-07-30T09:22:43.693Z,101906.53
2022-07-30T09:26:29.506Z,101901.41
2022-07-30T09:29:59.337Z,101903.28
2022-07-30T09:33:33.751Z,101902.16
2022-07-30T09:37:02.095Z,101907.84
2022-07-30T09:40:33.627Z,101901.84
2022-07-30T09:44:03.908Z,101895.16
2022-07-30T09:47:31.567Z,101894.22
2022-07-30T09:50:37.371Z,101888.16
2022-07-30T09:53:57.622Z,101889.53
2022-07-30T09:57:25.749Z,101881.63
2022-07-30T10:00:37.677Z,101888.66
2022-07-30T10:04:24.979Z,101885.13
2022-07-30T10:07:43.627Z,101882.88
2022-07-30T10:10:50.710Z,101892.38
2022-07-30T10:13:59.116Z,101878.31
2022-07-30T10:17:06.845Z,101873.06
2022-07-30T10:20:15.064Z,101869.81
2022-07-30T10:23:44.221Z,101873.47
2022-07-30T10:27:10.175Z,101870.75
2022-07-30T10:30:27.957Z,101868.00
2022-07-30T10:33:40.009Z,101862.16
2022-07-30T10:36:49.601Z,101876.63
2022-07-30T10:39:58.412Z,101865.50
2022-07-30T10:43:24.310Z,101866.03
2022-07-30T10:46:50.825Z,101870.81
2022-07-30T10:50:12.035Z,101875.78
2022-07-30T10:53:39.611Z,101871.34
2022-07-30T10:57:04.120Z,101874.56
2022-07-30T11:00:15.172Z,101874.25
2022-07-30T11:03:23.532Z,101869.38
2022-07-30T11:06:37.738Z,101869.94
2022-07-30T11:09:43.694Z,101874.06
2022-07-30T11:12:56.505Z,101873.19
2022-07-30T11:16:02.275Z,101864.53
2022-07-30T11:19:56.584Z,101874.03
2022-07-30T11:22:44.804Z,101867.41
2022-07-30T11:25:54.492Z,101858.69
2022-07-30T11:29:00.163Z,101858.66
2022-07-30T11:32:25.359Z,101857.91
2022-07-30T11:35:35.190Z,101858.53
2022-07-30T11:39:03.671Z,101866.53
2022-07-30T11:42:25.617Z,101858.97
2022-07-30T11:45:30.865Z,101865.56
2022-07-30T11:48:38.029Z,101864.84
2022-07-30T11:51:47.235Z,101866.13
2022-07-30T11:54:55.457Z,101865.84
2022-07-30T11:58:03.494Z,101859.94
2022-07-30T12:01:14.369Z,101853.19
2022-07-30T12:04:20.656Z,101860.19
2022-07-30T12:07:25.917Z,101856.59
2022-07-30T12:10:32.374Z,101863.56
2022-07-30T12:13:44.452Z,101862.03
2022-07-30T12:16:54.169Z,101859.34
2022-07-30T12:19:59.838Z,101862.25
2022-07-30T12:23:11.423Z,101863.41
2022-07-30T12:26:26.942Z,101874.97
2022-07-30T12:29:33.118Z,101865.59
2022-07-30T12:32:38.644Z,101873.69
2022-07-30T12:35:45.547Z,101865.34
2022-07-30T12:38:52.726Z,101865.06
2022-07-30T12:41:59.531Z,101865.69
2022-07-30T12:45:08.111Z,101870.44
2022-07-30T12:48:14.108Z,101854.00
2022-07-30T12:51:21.662Z,101861.63
2022-07-30T12:54:27.042Z,101855.22
2022-07-30T12:58:02.904Z,101861.13
2022-07-30T13:01:13.636Z,101857.66
2022-07-30T13:04:19.535Z,101847.84
2022-07-30T13:07:24.720Z,101845.69
2022-07-30T13:10:31.586Z,101842.03
2022-07-30T13:13:38.605Z,101846.03
2022-07-30T13:16:44.319Z,101842.66
2022-07-30T13:19:49.622Z,101836.94
2022-07-30T13:23:00.156Z,101837.09
2022-07-30T13:26:09.153Z,101834.25
2022-07-30T13:29:15.928Z,101839.78
2022-07-30T13:32:21.106Z,101836.50
2022-07-30T13:35:26.469Z,101840.28
2022-07-30T13:38:31.647Z,101827.41
2022-07-30T13:41:36.774Z,101825.94
2022-07-30T13:44:43.443Z,101826.81
2022-07-30T13:47:54.828Z,101827.75
2022-07-30T13:51:01.449Z,101830.16
2022-07-30T13:54:07.293Z,101823.94
2022-07-30T13:57:12.402Z,101829.09
2022-07-30T14:00:19.448Z,101823.31
2022-07-30T14:03:24.714Z,101819.38
2022-07-30T14:06:29.613Z,101828.88
2022-07-30T14:09:34.444Z,101833.31
2022-07-30T14:12:50.829Z,101825.19
2022-07-30T14:15:57.105Z,101829.16
2022-07-30T14:19:02.034Z,101819.22
2022-07-30T14:22:07.677Z,101812.28
2022-07-30T14:25:13.307Z,101815.41
2022-07-30T14:28:18.472Z,101820.16
2022-07-30T14:31:25.117Z,101811.47
2022-07-30T14:34:30.225Z,101816.47
2022-07-30T14:37:35.299Z,101815.03
2022-07-30T14:40:40.683Z,101816.81
2022-07-30T14:43:45.586Z,101810.84
2022-07-30T14:46:52.983Z,101811.34
2022-07-30T14:49:58.232Z,101815.16
2022-07-30T14:53:03.049Z,101810.47
2022-07-30T14:56:08.503Z,101805.25
2022-07-30T14:59:13.503Z,101805.44
2022-07-30T15:02:19.992Z,101803.03
2022-07-30T15:05:25.406Z,101802.69
2022-07-30T15:08:33.115Z,101810.00
2022-07-30T15:12:03.548Z,101807.53
2022-07-30T15:15:03.799Z,101808.34
2022-07-30T15:18:11.762Z,101809.34
2022-07-30T15:21:17.151Z,101803.63
2022-07-30T15:24:22.399Z,101796.22
2022-07-30T15:27:33.919Z,101808.81
2022-07-30T15:30:39.238Z,101801.69
2022-07-30T15:33:45.668Z,101805.94
2022-07-30T15:36:50.821Z,101808.25
2022-07-30T15:39:56.323Z,101804.50
2022-07-30T15:43:01.295Z,101803.72
2022-07-30T15:46:14.084Z,101804.28
2022-07-30T15:49:20.994Z,101804.28
2022-07-30T15:52:26.576Z,101805.69
2022-07-30T15:55:31.545Z,101807.63
2022-07-30T15:58:52.540Z,101807.59
2022-07-30T16:01:57.821Z,101800.34
2022-07-30T16:05:05.428Z,101805.41
2022-07-30T16:08:13.739Z,101809.53
2022-07-30T16:11:22.267Z,101806.72
2022-07-30T16:14:27.730Z,101800.06
2022-07-30T16:17:33.096Z,101801.50
2022-07-30T16:20:43.361Z,101792.06
2022-07-30T16:23:48.315Z,101790.09
2022-07-30T16:26:53.437Z,101790.38
2022-07-30T16:29:59.196Z,101788.66
2022-07-30T16:33:04.659Z,101783.38
2022-07-30T16:36:11.416Z,101781.75
2022-07-30T16:39:17.256Z,101781.19
2022-07-30T16:42:22.856Z,101780.88
2022-07-30T16:45:28.815Z,101776.16
2022-07-30T16:48:34.657Z,101779.06
2022-07-30T16:51:42.756Z,101788.25
2022-07-30T16:54:47.976Z,101779.56
2022-07-30T16:57:53.695Z,101782.28
2022-07-30T17:00:59.684Z,101784.66
2022-07-30T17:04:05.277Z,101790.63
2022-07-30T17:07:11.650Z,101788.06
2022-07-30T17:10:16.638Z,101785.53
2022-07-30T17:13:31.986Z,101782.78
2022-07-30T17:16:40.237Z,101779.63
2022-07-30T17:19:46.107Z,101779.91
2022-07-30T17:22:55.180Z,101778.72
2022-07-30T17:26:00.714Z,101776.69
2022-07-30T17:29:13.932Z,101780.13
2022-07-30T17:32:20.189Z,101777.38
2022-07-30T17:35:26.293Z,101769.59
2022-07-30T17:38:33.230Z,101765.00
2022-07-30T17:41:58.204Z,101766.16
2022-07-30T17:45:04.987Z,101761.84
2022-07-30T17:48:10.608Z,101762.63
2022-07-30T17:51:16.416Z,101755.31
2022-07-30T17:54:23.023Z,101757.03
2022-07-30T17:57:28.420Z,101754.56
2022-07-30T18:00:35.322Z,101755.53
2022-07-30T18:03:45.096Z,101756.00
2022-07-30T18:06:50.753Z,101755.66
2022-07-30T18:09:57.671Z,101756.38
2022-07-30T18:13:25.636Z,101753.81
2022-07-30T18:16:29.182Z,101753.31
2022-07-30T18:19:34.454Z,101749.53
2022-07-30T18:22:40.377Z,101756.25
2022-07-30T18:25:51.969Z,101757.09
2022-07-30T18:28:59.216Z,101748.88
2022-07-30T18:32:04.740Z,101752.97
2022-07-30T18:35:14.822Z,101749.56
2022-07-30T18:38:20.633Z,101743.50
2022-07-30T18:41:27.341Z,101744.72
2022-07-30T18:44:32.950Z,101739.25
2022-07-30T18:47:38.341Z,101742.91
2022-07-30T18:50:43.711Z,101735.56
2022-07-30T18:53:49.192Z,101741.53
2022-07-30T18:56:55.501Z,101747.13
2022-07-30T19:00:00.888Z,101748.41
2022-07-30T19:03:06.122Z,101746.59
2022-07-30T19:06:11.407Z,101747.16
2022-07-30T19:09:18.016Z,101744.47
2022-07-30T19:12:25.199Z,101743.47
2022-07-30T19:15:30.976Z,101747.41
2022-07-30T19:18:36.671Z,101743.03
2022-07-30T19:21:42.575Z,101735.81
2022-07-30T19:24:51.319Z,101734.69
2022-07-30T19:27:58.085Z,101739.63
2022-07-30T19:31:02.945Z,101734.25
2022-07-30T19:34:11.763Z,101742.03
2022-07-30T19:37:16.965Z,101746.06
2022-07-30T19:40:22.187Z,101750.13
2022-07-30T19:43:30.685Z,101749.78
2022-07-30T19:46:39.058Z,101744.72
2022-07-30T19:49:46.549Z,101750.47
2022-07-30T19:52:54.739Z,101749.66
2022-07-30T19:56:01.654Z,101748.69
2022-07-30T19:59:14.685Z,101747.75
2022-07-30T20:02:20.653Z,101744.75
2022-07-30T20:05:27.718Z,101743.44
2022-07-30T20:08:35.545Z,101744.84
2022-07-30T20:11:40.781Z,101747.41
2022-07-30T20:14:53.477Z,101744.75
2022-07-30T20:17:58.483Z,101746.22
2022-07-30T20:21:03.882Z,101746.44
2022-07-30T20:24:09.934Z,101748.59
2022-07-30T20:27:36.613Z,101747.53
2022-07-30T20:30:42.933Z,101754.72
2022-07-30T20:33:50.158Z,101751.50
2022-07-30T21:15:23.593Z,101749.34
2022-07-30T21:18:29.790Z,101753.81
2022-07-30T21:21:41.874Z,101750.38
2022-07-30T21:24:53.431Z,101744.28
2022-07-30T21:27:58.994Z,101742.13
2022-07-30T21:31:06.919Z,101750.63
2022-07-30T21:34:13.350Z,101746.81
2022-07-30T21:37:19.381Z,101740.09
2022-07-30T21:40:25.012Z,101742.03
2022-07-30T21:43:30.968Z,101736.88
2022-07-30T21:46:40.533Z,101742.53
2022-07-30T21:49:47.256Z,101745.97
2022-07-30T21:52:52.320Z,101749.34
2022-07-30T21:55:57.468Z,101748.03
2022-07-30T21:59:02.859Z,101748.03
2022-07-30T22:02:15.863Z,101744.44
2022-07-30T22:08:49.388Z,101746.84
2022-07-30T22:11:54.723Z,101743.97
2022-07-30T22:15:00.925Z,101742.53
2022-07-30T22:18:08.020Z,101751.50
2022-07-30T22:21:14.572Z,101762.22
2022-07-30T22:24:29.916Z,101765.13
2022-07-30T22:27:39.956Z,101769.56
2022-07-30T22:31:01.780Z,101769.19
2022-07-30T22:34:12.104Z,101757.44
2022-07-30T22:37:21.921Z,101755.94
2022-07-30T22:40:26.820Z,101754.47
2022-07-30T22:43:33.299Z,101761.91
2022-07-30T22:46:46.225Z,101748.38
2022-07-30T22:50:03.078Z,101753.59
2022-07-30T22:53:23.357Z,101745.78
2022-07-30T22:56:33.981Z,101750.34
2022-07-30T22:59:58.020Z,101754.53
2022-07-30T23:03:04.429Z,101750.69
2022-07-30T23:06:16.275Z,101757.31
2022-07-30T23:09:22.262Z,101750.94
2022-07-30T23:12:32.822Z,101746.13
2022-07-30T23:12:35.294Z,101753.69
2022-07-30T23:15:40.977Z,101744.91
2022-07-30T23:18:45.881Z,101743.47
2022-07-30T23:21:52.868Z,101742.38
2022-07-30T23:24:58.460Z,101743.09
2022-07-30T23:28:03.976Z,101732.09
2022-07-30T23:31:09.550Z,101736.00
2022-07-30T23:34:14.768Z,101726.53
2022-07-30T23:37:21.724Z,101722.59
2022-07-30T23:40:27.190Z,101729.19
2022-07-30T23:43:32.797Z,101724.03
2022-07-30T23:46:38.303Z,101722.41
2022-07-30T23:49:43.751Z,101717.38
2022-07-30T23:52:50.690Z,101715.34
2022-07-30T23:55:56.151Z,101717.06
2022-07-30T23:59:01.917Z,101717.06
